Winthrop, Washington
Current Conditions -  °F | °C
As of 10:09 PM on Wednesday 22 Oct 2014 (Local Time) from KOMK Reporting Station
Overcast Overcast  
Wind Chill: 55°   Ceiling: 3300
Heat Index: 55°   Visibility: 10mi
Dew Point: 50°   Wind: 12mph
Humidity: 83%   Direction: 190°S
Pressure: 29.63"   Gusts: NA
Location:  48.48°N, 120.19°W
Report Text: KOMK 230509Z AUTO 19010KT 10SM SCT027 OVC033 13/10 A2963 RMK AO2 T01280100
Loading
Personal Weather Stations






























Interactive Weather Map
Tropical Storm Tracking
New forecast layout! Learn more

10-Day Weather Forecast

Advertisements
Track Severe Weather on mobile